createdAt,value
2017-10-30T00:00:27.389Z,1013.38
2017-10-30T00:01:37.413Z,1013.44
2017-10-30T00:02:47.090Z,1013.4
2017-10-30T00:03:56.836Z,1013.43
2017-10-30T00:05:06.545Z,1013.46
2017-10-30T00:06:16.246Z,1013.51
2017-10-30T00:07:26.290Z,1013.58
2017-10-30T00:08:35.633Z,1013.59
2017-10-30T00:09:45.735Z,1013.63
2017-10-30T00:10:55.496Z,1013.61
2017-10-30T00:12:05.540Z,1013.57
2017-10-30T00:13:15.557Z,1013.6
2017-10-30T00:14:25.233Z,1013.58
2017-10-30T00:15:35.585Z,1013.62
2017-10-30T00:16:45.594Z,1013.65
2017-10-30T00:17:54.941Z,1013.59
2017-10-30T00:19:04.950Z,1013.59
2017-10-30T00:20:14.633Z,1013.54
2017-10-30T00:21:24.316Z,1013.51
2017-10-30T00:22:33.993Z,1013.5
2017-10-30T00:23:43.335Z,1013.51
2017-10-30T00:24:52.675Z,1013.51
2017-10-30T00:26:02.713Z,1013.55
2017-10-30T00:27:12.391Z,1013.53
2017-10-30T00:28:22.089Z,1013.59
2017-10-30T00:29:32.434Z,1013.64
2017-10-30T00:30:42.114Z,1013.68
2017-10-30T00:31:52.121Z,1013.71
2017-10-30T00:33:02.133Z,1013.71
2017-10-30T00:34:12.169Z,1013.79
2017-10-30T00:35:21.866Z,1013.86
2017-10-30T00:36:31.540Z,1013.81
2017-10-30T00:37:41.550Z,1013.87
2017-10-30T00:38:51.572Z,1013.83
2017-10-30T00:40:01.589Z,1013.79
2017-10-30T00:41:11.272Z,1013.81
2017-10-30T00:42:21.285Z,1013.76
2017-10-30T00:43:30.964Z,1013.81
2017-10-30T00:44:40.994Z,1013.79
2017-10-30T00:45:51.008Z,1013.76
2017-10-30T00:47:00.687Z,1013.73
2017-10-30T00:48:11.048Z,1013.72
2017-10-30T00:49:21.055Z,1013.74
2017-10-30T00:50:31.405Z,1013.73
2017-10-30T00:51:40.799Z,1013.76
2017-10-30T00:52:50.810Z,1013.71
2017-10-30T00:54:00.829Z,1013.72
2017-10-30T00:55:10.515Z,1013.7
2017-10-30T00:56:20.866Z,1013.76
2017-10-30T00:57:30.546Z,1013.74
2017-10-30T00:58:40.570Z,1013.74
2017-10-30T00:59:50.629Z,1013.72
2017-10-30T01:01:00.646Z,1013.79
2017-10-30T01:02:10.663Z,1013.76
2017-10-30T01:03:20.681Z,1013.74
2017-10-30T01:04:30.361Z,1013.8
2017-10-30T01:05:40.706Z,1013.76
2017-10-30T01:06:50.717Z,1013.73
2017-10-30T01:08:00.729Z,1013.72
2017-10-30T01:09:11.075Z,1013.74
2017-10-30T01:10:21.091Z,1013.76
2017-10-30T01:11:31.439Z,1013.74
2017-10-30T01:12:41.453Z,1013.68
2017-10-30T01:13:50.798Z,1013.67
2017-10-30T01:15:00.805Z,1013.7
2017-10-30T01:16:10.814Z,1013.73
2017-10-30T01:17:20.824Z,1013.69
2017-10-30T01:18:30.170Z,1013.73
2017-10-30T01:19:39.844Z,1013.77
2017-10-30T01:20:48.849Z,1013.71
2017-10-30T01:21:58.859Z,1013.7
2017-10-30T01:23:09.213Z,1013.72
2017-10-30T01:24:19.570Z,1013.74
2017-10-30T01:25:29.246Z,1013.69
2017-10-30T01:26:39.268Z,1013.74
2017-10-30T01:27:48.608Z,1013.77
2017-10-30T01:28:58.654Z,1013.7
2017-10-30T01:30:08.337Z,1013.72
2017-10-30T01:31:18.683Z,1013.72
2017-10-30T01:32:28.696Z,1013.77
2017-10-30T01:33:38.368Z,1013.79
2017-10-30T01:34:48.384Z,1013.85
2017-10-30T01:35:58.398Z,1013.85
2017-10-30T01:37:08.415Z,1013.84
2017-10-30T01:38:18.451Z,1013.84
2017-10-30T01:39:28.464Z,1013.87
2017-10-30T01:40:38.844Z,1013.86
2017-10-30T01:41:48.860Z,1013.87
2017-10-30T01:42:58.210Z,1013.87
2017-10-30T01:44:08.232Z,1013.84
2017-10-30T01:45:17.570Z,1013.91
2017-10-30T01:46:27.243Z,1013.88
2017-10-30T01:47:37.264Z,1013.92
2017-10-30T01:48:47.291Z,1013.88
2017-10-30T01:49:57.306Z,1013.88
2017-10-30T01:51:06.647Z,1013.94
2017-10-30T01:52:15.989Z,1013.9
2017-10-30T01:53:26.010Z,1013.85
2017-10-30T01:54:35.682Z,1013.89
2017-10-30T01:55:45.359Z,1013.85
2017-10-30T01:56:55.046Z,1013.87
2017-10-30T01:58:04.729Z,1013.9
2017-10-30T01:59:14.416Z,1013.91
2017-10-30T02:00:24.095Z,1013.94
2017-10-30T02:01:33.775Z,1013.92
2017-10-30T02:02:44.125Z,1013.92
2017-10-30T02:03:54.142Z,1013.9
2017-10-30T02:05:04.162Z,1013.89
2017-10-30T02:06:13.841Z,1013.89
2017-10-30T02:07:23.518Z,1013.85
2017-10-30T02:08:33.201Z,1013.87
2017-10-30T02:09:42.870Z,1013.88
2017-10-30T02:10:52.543Z,1013.85
2017-10-30T02:12:02.553Z,1013.87
2017-10-30T02:13:12.234Z,1013.86
2017-10-30T02:14:22.240Z,1013.86
2017-10-30T02:15:31.913Z,1013.85
2017-10-30T02:16:41.600Z,1013.89
2017-10-30T02:17:51.945Z,1013.91
2017-10-30T02:19:01.620Z,1013.95
2017-10-30T02:20:11.630Z,1014.02
2017-10-30T02:21:21.668Z,1013.97
2017-10-30T02:22:31.008Z,1013.96
2017-10-30T02:23:41.019Z,1013.95
2017-10-30T02:24:50.356Z,1013.92
2017-10-30T02:26:00.033Z,1013.96
2017-10-30T02:27:09.379Z,1013.92
2017-10-30T02:28:19.086Z,1013.92
2017-10-30T02:29:29.431Z,1013.95
2017-10-30T02:30:39.455Z,1013.93
2017-10-30T02:31:49.467Z,1013.94
2017-10-30T02:32:59.147Z,1013.92
2017-10-30T02:34:08.149Z,1013.91
2017-10-30T02:35:18.508Z,1013.96
2017-10-30T02:36:28.879Z,1013.93
2017-10-30T02:37:38.559Z,1014
2017-10-30T02:38:48.575Z,1013.98
2017-10-30T02:39:58.929Z,1013.96
2017-10-30T02:41:07.965Z,1013.98
2017-10-30T02:42:18.345Z,1013.97
2017-10-30T02:43:28.528Z,1013.96
2017-10-30T02:44:39.067Z,1013.98
2017-10-30T02:45:49.256Z,1013.99
2017-10-30T02:46:58.983Z,1014
2017-10-30T02:48:09.586Z,1014.06
2017-10-30T02:49:19.078Z,1014.07
2017-10-30T02:50:29.311Z,1014.04
2017-10-30T02:51:38.412Z,1014.05
2017-10-30T02:52:48.473Z,1014.03
2017-10-30T02:53:59.048Z,1014.1
2017-10-30T02:55:08.582Z,1014.06
2017-10-30T02:56:18.635Z,1014.06
2017-10-30T02:57:28.876Z,1014.05
2017-10-30T02:58:38.737Z,1014.08
2017-10-30T02:59:49.128Z,1014.05
2017-10-30T03:00:58.683Z,1014.05
2017-10-30T03:02:09.211Z,1014.08
2017-10-30T03:03:19.266Z,1014.09
2017-10-30T03:04:29.136Z,1014.09
2017-10-30T03:05:38.999Z,1014.12
2017-10-30T03:06:49.394Z,1014.1
2017-10-30T03:07:59.643Z,1014.12
2017-10-30T03:09:09.467Z,1014.16
2017-10-30T03:10:19.860Z,1014.15
2017-10-30T03:11:30.046Z,1014.25
2017-10-30T03:12:40.446Z,1014.29
2017-10-30T03:13:50.640Z,1014.25
2017-10-30T03:15:01.170Z,1014.29
2017-10-30T03:16:10.888Z,1014.28
2017-10-30T03:17:21.149Z,1014.37
2017-10-30T03:18:31.344Z,1014.34
2017-10-30T03:19:41.392Z,1014.38
2017-10-30T03:20:51.621Z,1014.37
2017-10-30T03:22:01.812Z,1014.4
2017-10-30T03:23:11.203Z,1014.41
2017-10-30T03:24:21.448Z,1014.43
2017-10-30T03:25:31.606Z,1014.41
2017-10-30T03:26:41.332Z,1014.42
2017-10-30T03:27:51.540Z,1014.46
2017-10-30T03:29:02.069Z,1014.48
2017-10-30T03:30:12.116Z,1014.48
2017-10-30T03:31:22.344Z,1014.52
2017-10-30T03:32:32.130Z,1014.57
2017-10-30T03:33:42.001Z,1014.51
2017-10-30T03:34:52.241Z,1014.57
2017-10-30T03:36:02.011Z,1014.56
2017-10-30T03:37:11.919Z,1014.58
2017-10-30T03:38:22.504Z,1014.59
2017-10-30T03:39:32.219Z,1014.6
2017-10-30T03:40:42.817Z,1014.6
2017-10-30T03:41:52.356Z,1014.65
2017-10-30T03:43:02.745Z,1014.68
2017-10-30T03:44:12.651Z,1014.68
2017-10-30T03:45:22.848Z,1014.66
2017-10-30T03:46:32.561Z,1014.66
2017-10-30T03:47:42.819Z,1014.65
2017-10-30T03:48:53.360Z,1014.68
2017-10-30T03:50:03.841Z,1014.69
2017-10-30T03:51:13.340Z,1014.72
2017-10-30T03:52:22.427Z,1014.73
2017-10-30T03:53:31.777Z,1014.75
2017-10-30T03:54:41.459Z,1014.73
2017-10-30T03:55:51.487Z,1014.74
2017-10-30T03:57:01.828Z,1014.77
2017-10-30T03:58:12.168Z,1014.82
2017-10-30T03:59:21.165Z,1014.79
2017-10-30T04:00:31.507Z,1014.82
2017-10-30T04:01:41.847Z,1014.82
2017-10-30T04:02:51.885Z,1014.8
2017-10-30T04:04:01.890Z,1014.75
2017-10-30T04:05:11.559Z,1014.78
2017-10-30T04:06:21.905Z,1014.78
2017-10-30T04:07:31.906Z,1014.73
2017-10-30T04:08:41.918Z,1014.81
2017-10-30T04:09:52.273Z,1014.85
2017-10-30T04:11:02.291Z,1014.85
2017-10-30T04:12:12.644Z,1014.9
2017-10-30T04:13:22.316Z,1014.93
2017-10-30T04:14:32.653Z,1014.95
2017-10-30T04:15:42.359Z,1014.97
2017-10-30T04:16:52.143Z,1015.01
2017-10-30T04:18:02.485Z,1015.01
2017-10-30T04:19:12.152Z,1014.98
2017-10-30T04:20:21.496Z,1015
2017-10-30T04:21:31.543Z,1015.01
2017-10-30T04:22:41.550Z,1014.99
2017-10-30T04:23:51.897Z,1015.04
2017-10-30T04:25:01.897Z,1015.02
2017-10-30T04:26:11.241Z,1015.09
2017-10-30T04:27:20.926Z,1015.11
2017-10-30T04:28:30.595Z,1015.03
2017-10-30T04:29:40.271Z,1015.1
2017-10-30T04:30:49.657Z,1015.06
2017-10-30T04:31:59.658Z,1015.12
2017-10-30T04:33:09.660Z,1015.11
2017-10-30T04:34:19.670Z,1015.13
2017-10-30T04:35:29.357Z,1015.16
2017-10-30T04:36:39.032Z,1015.22
2017-10-30T04:37:49.376Z,1015.21
2017-10-30T04:38:59.045Z,1015.18
2017-10-30T04:40:09.051Z,1015.22
2017-10-30T04:41:19.052Z,1015.26
2017-10-30T04:42:29.064Z,1015.26
2017-10-30T04:43:38.757Z,1015.3
2017-10-30T04:44:48.768Z,1015.26
2017-10-30T04:45:58.462Z,1015.28
2017-10-30T04:47:08.464Z,1015.25
2017-10-30T04:48:18.472Z,1015.26
2017-10-30T04:49:28.481Z,1015.24
2017-10-30T04:50:38.822Z,1015.25
2017-10-30T04:51:48.827Z,1015.2
2017-10-30T04:52:59.170Z,1015.28
2017-10-30T04:54:09.178Z,1015.33
2017-10-30T04:55:19.563Z,1015.28
2017-10-30T04:56:28.907Z,1015.23
2017-10-30T04:57:38.592Z,1015.34
2017-10-30T04:58:47.926Z,1015.27
2017-10-30T04:59:57.595Z,1015.36
2017-10-30T05:01:07.264Z,1015.38
2017-10-30T05:02:17.269Z,1015.41
2017-10-30T05:03:26.599Z,1015.39
2017-10-30T05:04:36.269Z,1015.41
2017-10-30T05:05:45.936Z,1015.43
2017-10-30T05:06:55.952Z,1015.47
2017-10-30T05:08:05.957Z,1015.48
2017-10-30T05:09:15.983Z,1015.52
2017-10-30T05:10:25.650Z,1015.47
2017-10-30T05:11:35.318Z,1015.45
2017-10-30T05:12:45.682Z,1015.44
2017-10-30T05:13:55.364Z,1015.55
2017-10-30T05:15:05.381Z,1015.45
2017-10-30T05:16:15.049Z,1015.45
2017-10-30T05:17:25.055Z,1015.44
2017-10-30T05:18:34.724Z,1015.44
2017-10-30T05:19:44.090Z,1015.46
2017-10-30T05:20:53.765Z,1015.49
2017-10-30T05:22:04.102Z,1015.46
2017-10-30T05:23:14.127Z,1015.47
2017-10-30T05:24:23.462Z,1015.5
2017-10-30T05:25:32.793Z,1015.49
2017-10-30T05:26:43.132Z,1015.52
2017-10-30T05:27:53.472Z,1015.53
2017-10-30T05:29:03.145Z,1015.48
2017-10-30T05:30:12.859Z,1015.49
2017-10-30T05:31:22.540Z,1015.56
2017-10-30T05:32:32.211Z,1015.59
2017-10-30T05:33:41.882Z,1015.64
2017-10-30T05:34:51.902Z,1015.6
2017-10-30T05:36:01.569Z,1015.61
2017-10-30T05:37:11.240Z,1015.62
2017-10-30T05:38:20.903Z,1015.62
2017-10-30T05:39:30.907Z,1015.62
2017-10-30T05:40:40.910Z,1015.64
2017-10-30T05:41:50.576Z,1015.68
2017-10-30T05:43:00.582Z,1015.65
2017-10-30T05:44:10.623Z,1015.67
2017-10-30T05:45:19.625Z,1015.65
2017-10-30T05:46:28.949Z,1015.7
2017-10-30T05:47:37.947Z,1015.69
2017-10-30T05:48:47.632Z,1015.69
2017-10-30T05:49:57.965Z,1015.72
2017-10-30T05:51:07.966Z,1015.68
2017-10-30T05:52:17.970Z,1015.63
2017-10-30T05:53:28.307Z,1015.67
2017-10-30T05:54:38.308Z,1015.59
2017-10-30T05:55:47.974Z,1015.63
2017-10-30T05:56:57.649Z,1015.63
2017-10-30T05:58:07.317Z,1015.61
2017-10-30T05:59:17.348Z,1015.66
2017-10-30T06:00:27.700Z,1015.69
2017-10-30T06:01:38.043Z,1015.68
2017-10-30T06:02:47.765Z,1015.7
2017-10-30T06:03:57.783Z,1015.76
2017-10-30T06:05:07.812Z,1015.74
2017-10-30T06:06:17.471Z,1015.71
2017-10-30T06:07:27.142Z,1015.74
2017-10-30T06:08:37.153Z,1015.77
2017-10-30T06:09:46.155Z,1015.77
2017-10-30T06:10:56.178Z,1015.82
2017-10-30T06:12:05.841Z,1015.77
2017-10-30T06:13:15.179Z,1015.79
2017-10-30T06:14:25.188Z,1015.8
2017-10-30T06:15:35.308Z,1015.83
2017-10-30T06:16:44.974Z,1015.87
2017-10-30T06:17:54.649Z,1015.87
2017-10-30T06:19:04.998Z,1015.88
2017-10-30T06:20:14.719Z,1015.95
2017-10-30T06:21:24.062Z,1015.97
2017-10-30T06:22:34.068Z,1015.99
2017-10-30T06:23:43.741Z,1015.99
2017-10-30T06:24:53.431Z,1016.03
2017-10-30T06:26:03.101Z,1016.09
2017-10-30T06:27:13.483Z,1016.02
2017-10-30T06:28:23.854Z,1016.01
2017-10-30T06:29:33.862Z,1016.09
2017-10-30T06:30:43.555Z,1015.99
2017-10-30T06:31:53.450Z,1016.06
2017-10-30T06:33:03.153Z,1015.99
2017-10-30T06:34:13.160Z,1016.04
2017-10-30T06:35:22.161Z,1016.04
2017-10-30T06:36:31.497Z,1016.05
2017-10-30T06:37:40.833Z,1016.08
2017-10-30T06:38:51.177Z,1016.1
2017-10-30T06:40:00.868Z,1016.08
2017-10-30T06:41:10.545Z,1016.12
2017-10-30T06:42:19.886Z,1016.14
2017-10-30T06:43:29.899Z,1016.14
2017-10-30T06:44:39.922Z,1016.13
2017-10-30T06:45:49.931Z,1016.14
2017-10-30T06:46:59.603Z,1016.17
2017-10-30T06:48:09.955Z,1016.23
2017-10-30T06:49:19.965Z,1016.18
2017-10-30T06:50:29.974Z,1016.19
2017-10-30T06:51:40.011Z,1016.26
2017-10-30T06:52:50.026Z,1016.28
2017-10-30T06:53:59.692Z,1016.24
2017-10-30T06:55:09.703Z,1016.31
2017-10-30T06:56:19.366Z,1016.31
2017-10-30T06:57:29.074Z,1016.33
2017-10-30T06:58:39.090Z,1016.31
2017-10-30T06:59:48.816Z,1016.33
2017-10-30T07:00:58.485Z,1016.36
2017-10-30T07:02:07.820Z,1016.44
2017-10-30T07:03:18.158Z,1016.45
2017-10-30T07:04:28.177Z,1016.44
2017-10-30T07:05:38.192Z,1016.48
2017-10-30T07:06:47.860Z,1016.54
2017-10-30T07:07:57.862Z,1016.57
2017-10-30T07:09:07.251Z,1016.54
2017-10-30T07:10:17.313Z,1016.57
2017-10-30T07:11:27.326Z,1016.61
2017-10-30T07:12:36.682Z,1016.6
2017-10-30T07:13:47.025Z,1016.67
2017-10-30T07:14:56.706Z,1016.65
2017-10-30T07:16:06.724Z,1016.63
2017-10-30T07:17:16.728Z,1016.66
2017-10-30T07:18:25.785Z,1016.62
2017-10-30T07:19:35.797Z,1016.66
2017-10-30T07:20:45.135Z,1016.67
2017-10-30T07:21:54.470Z,1016.7
2017-10-30T07:23:04.835Z,1016.71
2017-10-30T07:24:14.850Z,1016.73
2017-10-30T07:25:24.875Z,1016.73
2017-10-30T07:26:34.596Z,1016.74
2017-10-30T07:27:44.940Z,1016.84
2017-10-30T07:28:54.325Z,1016.87
2017-10-30T07:30:03.719Z,1016.83
2017-10-30T07:31:13.809Z,1016.82
2017-10-30T07:32:23.153Z,1016.86
2017-10-30T07:33:32.489Z,1016.92
2017-10-30T07:34:42.496Z,1016.98
2017-10-30T07:35:52.532Z,1016.97
2017-10-30T07:37:02.562Z,1017.02
2017-10-30T07:38:12.565Z,1017.05
2017-10-30T07:39:22.921Z,1017.09
2017-10-30T07:40:32.934Z,1017.08
2017-10-30T07:41:42.312Z,1017.05
2017-10-30T07:42:51.653Z,1017.08
2017-10-30T07:44:00.989Z,1017.11
2017-10-30T07:45:10.718Z,1017.09
2017-10-30T07:46:20.391Z,1017.13
2017-10-30T07:47:29.738Z,1017.15
2017-10-30T07:48:39.422Z,1017.08
2017-10-30T07:49:49.108Z,1017.06
2017-10-30T07:50:58.782Z,1017.16
2017-10-30T07:52:08.479Z,1017.15
2017-10-30T07:53:18.542Z,1017.19
2017-10-30T07:54:28.552Z,1017.15
2017-10-30T07:55:38.228Z,1017.17
2017-10-30T07:56:48.599Z,1017.18
2017-10-30T07:57:57.951Z,1017.17
2017-10-30T07:59:07.975Z,1017.2
2017-10-30T08:00:17.979Z,1017.14
2017-10-30T08:01:27.665Z,1017.23
2017-10-30T08:02:37.337Z,1017.18
2017-10-30T08:03:47.685Z,1017.16
2017-10-30T08:04:57.408Z,1017.23
2017-10-30T08:06:06.754Z,1017.24
2017-10-30T08:07:16.440Z,1017.27
2017-10-30T08:08:26.120Z,1017.25
2017-10-30T08:09:35.793Z,1017.3
2017-10-30T08:10:45.807Z,1017.33
2017-10-30T08:11:55.821Z,1017.34
2017-10-30T08:13:06.162Z,1017.35
2017-10-30T08:14:15.848Z,1017.33
2017-10-30T08:15:25.856Z,1017.36
2017-10-30T08:16:35.874Z,1017.37
2017-10-30T08:17:45.550Z,1017.37
2017-10-30T08:18:54.903Z,1017.36
2017-10-30T08:20:04.244Z,1017.41
2017-10-30T08:21:13.921Z,1017.39
2017-10-30T08:22:23.928Z,1017.44
2017-10-30T08:23:34.120Z,1017.45
2017-10-30T08:24:44.132Z,1017.53
2017-10-30T08:25:54.176Z,1017.53
2017-10-30T08:27:04.378Z,1017.53
2017-10-30T08:28:14.162Z,1017.55
2017-10-30T08:29:23.893Z,1017.5
2017-10-30T08:30:34.427Z,1017.62
2017-10-30T08:31:44.376Z,1017.6
2017-10-30T08:32:54.388Z,1017.59
2017-10-30T08:34:04.737Z,1017.51
2017-10-30T08:35:14.415Z,1017.51
2017-10-30T08:36:23.752Z,1017.49
2017-10-30T08:37:33.781Z,1017.47
2017-10-30T08:38:44.140Z,1017.47
2017-10-30T08:39:53.813Z,1017.53
2017-10-30T08:41:03.832Z,1017.46
2017-10-30T08:42:13.838Z,1017.49
2017-10-30T08:43:23.854Z,1017.53
2017-10-30T08:44:32.857Z,1017.5
2017-10-30T08:45:43.206Z,1017.53
2017-10-30T08:46:53.216Z,1017.49
2017-10-30T08:48:02.897Z,1017.45
2017-10-30T08:49:12.243Z,1017.53
2017-10-30T08:50:21.974Z,1017.48
2017-10-30T08:51:31.991Z,1017.47
2017-10-30T08:52:42.002Z,1017.46
2017-10-30T08:53:51.353Z,1017.48
2017-10-30T08:55:01.080Z,1017.54
2017-10-30T08:56:11.612Z,1017.48
2017-10-30T08:57:22.124Z,1017.48
2017-10-30T08:58:31.507Z,1017.53
2017-10-30T08:59:41.732Z,1017.52
2017-10-30T09:00:51.984Z,1017.51
2017-10-30T09:02:02.132Z,1017.56
2017-10-30T09:03:12.386Z,1017.56
2017-10-30T09:04:21.867Z,1017.57
2017-10-30T09:05:31.924Z,1017.57
2017-10-30T09:06:42.140Z,1017.63
2017-10-30T09:07:52.319Z,1017.61
2017-10-30T09:09:01.746Z,1017.68
2017-10-30T09:10:11.874Z,1017.67
2017-10-30T09:11:21.853Z,1017.71
2017-10-30T09:12:31.395Z,1017.62
2017-10-30T09:13:41.932Z,1017.65
2017-10-30T09:14:52.428Z,1017.62
2017-10-30T09:16:02.587Z,1017.72
2017-10-30T09:17:12.282Z,1017.74
2017-10-30T09:18:21.762Z,1017.69
2017-10-30T09:19:31.348Z,1017.72
2017-10-30T09:20:41.129Z,1017.73
2017-10-30T09:21:51.367Z,1017.73
2017-10-30T09:23:01.459Z,1017.74
2017-10-30T09:24:11.577Z,1017.77
2017-10-30T09:25:21.259Z,1017.74
2017-10-30T09:26:31.607Z,1017.72
2017-10-30T09:27:42.025Z,1017.73
2017-10-30T09:28:52.048Z,1017.83
2017-10-30T09:30:01.723Z,1017.85
2017-10-30T09:31:11.740Z,1017.83
2017-10-30T09:32:21.429Z,1017.85
2017-10-30T09:33:31.127Z,1017.73
2017-10-30T09:34:40.472Z,1017.86
2017-10-30T09:35:50.148Z,1017.9
2017-10-30T09:37:00.162Z,1017.78
2017-10-30T09:38:09.847Z,1017.81
2017-10-30T09:39:19.517Z,1017.86
2017-10-30T09:40:29.196Z,1017.84
2017-10-30T09:41:38.219Z,1017.78
2017-10-30T09:42:48.244Z,1017.82
2017-10-30T09:43:57.580Z,1017.81
2017-10-30T09:45:06.945Z,1017.81
2017-10-30T09:46:16.626Z,1017.77
2017-10-30T09:47:26.313Z,1017.76
2017-10-30T09:48:35.993Z,1017.82
2017-10-30T09:49:46.030Z,1017.8
2017-10-30T09:50:56.377Z,1017.81
2017-10-30T09:52:06.740Z,1017.82
2017-10-30T09:53:16.140Z,1017.84
2017-10-30T09:54:25.820Z,1017.83
2017-10-30T09:55:35.504Z,1017.82
2017-10-30T09:56:45.180Z,1017.77
2017-10-30T09:57:55.195Z,1017.8
2017-10-30T09:59:05.609Z,1017.82
2017-10-30T10:00:15.291Z,1017.81
2017-10-30T10:01:25.639Z,1017.85
2017-10-30T10:02:35.688Z,1017.88
2017-10-30T10:03:45.702Z,1017.87
2017-10-30T10:04:56.062Z,1017.91
2017-10-30T10:06:05.752Z,1018.03
2017-10-30T10:07:15.811Z,1017.94
2017-10-30T10:08:25.279Z,1018.03
2017-10-30T10:09:35.323Z,1017.97
2017-10-30T10:10:45.684Z,1017.99
2017-10-30T10:11:54.697Z,1018.04
2017-10-30T10:13:04.714Z,1018.04
2017-10-30T10:14:14.404Z,1018.11
2017-10-30T10:15:23.859Z,1018.12
2017-10-30T10:16:34.206Z,1018.08
2017-10-30T10:17:43.884Z,1018.03
2017-10-30T10:18:54.084Z,1018.01
2017-10-30T10:20:04.244Z,1018.1
2017-10-30T10:21:14.600Z,1018.1
2017-10-30T10:22:24.318Z,1018.13
2017-10-30T10:23:34.387Z,1018.18
2017-10-30T10:24:44.116Z,1018.17
2017-10-30T10:25:54.126Z,1018.17
2017-10-30T10:27:03.829Z,1018.2
2017-10-30T10:28:13.950Z,1018.17
2017-10-30T10:29:23.648Z,1018.22
2017-10-30T10:30:33.694Z,1018.25
2017-10-30T10:31:43.479Z,1018.33
2017-10-30T10:32:53.935Z,1018.19
2017-10-30T10:34:04.048Z,1018.17
2017-10-30T10:35:14.126Z,1018.22
2017-10-30T10:36:23.949Z,1018.26
2017-10-30T10:37:33.340Z,1018.27
2017-10-30T10:38:43.102Z,1018.2
2017-10-30T10:39:53.229Z,1018.2
2017-10-30T10:41:03.540Z,1018.25
2017-10-30T10:42:13.275Z,1018.26
2017-10-30T10:43:22.656Z,1018.27
2017-10-30T10:44:31.736Z,1018.25
2017-10-30T10:45:40.800Z,1018.24
2017-10-30T10:46:51.288Z,1018.25
2017-10-30T10:48:01.700Z,1018.33
2017-10-30T10:49:12.193Z,1018.2
2017-10-30T10:50:22.323Z,1018.28
2017-10-30T10:51:32.862Z,1018.25
2017-10-30T10:52:43.335Z,1018.29
2017-10-30T10:53:52.786Z,1018.24
2017-10-30T10:55:01.914Z,1018.27
2017-10-30T10:56:12.116Z,1018.24
2017-10-30T10:57:21.912Z,1018.24
2017-10-30T10:58:31.071Z,1018.28
2017-10-30T10:59:40.645Z,1018.27
2017-10-30T11:00:50.378Z,1018.25
2017-10-30T11:02:00.463Z,1018.23
2017-10-30T11:03:09.896Z,1018.2
2017-10-30T11:04:19.639Z,1018.18
2017-10-30T11:05:29.393Z,1018.2
2017-10-30T11:06:40.059Z,1018.28
2017-10-30T11:07:49.857Z,1018.24
2017-10-30T11:09:00.304Z,1018.28
2017-10-30T11:10:10.290Z,1018.29
2017-10-30T11:11:19.810Z,1018.38
2017-10-30T11:12:30.197Z,1018.28
2017-10-30T11:13:40.828Z,1018.3
2017-10-30T11:14:51.413Z,1018.24
2017-10-30T11:16:01.658Z,1018.26
2017-10-30T11:17:11.874Z,1018.28
2017-10-30T11:18:22.388Z,1018.29
2017-10-30T11:19:32.138Z,1018.27
2017-10-30T11:20:42.582Z,1018.27
2017-10-30T11:21:52.787Z,1018.26
2017-10-30T11:23:02.038Z,1018.29
2017-10-30T11:24:12.310Z,1018.31
2017-10-30T11:25:22.892Z,1018.33
2017-10-30T11:26:32.208Z,1018.28
2017-10-30T11:27:42.617Z,1018.38
2017-10-30T11:28:51.813Z,1018.38
2017-10-30T11:30:02.318Z,1018.31
2017-10-30T11:31:12.509Z,1018.34
2017-10-30T11:32:22.459Z,1018.32
2017-10-30T11:33:31.966Z,1018.33
2017-10-30T11:34:42.482Z,1018.34
2017-10-30T11:35:52.046Z,1018.37
2017-10-30T11:37:02.445Z,1018.4
2017-10-30T11:38:13.211Z,1018.41
2017-10-30T11:39:23.110Z,1018.49
2017-10-30T11:40:32.952Z,1018.37
2017-10-30T11:41:43.342Z,1018.35
2017-10-30T11:42:53.417Z,1018.42
2017-10-30T11:44:03.623Z,1018.35
2017-10-30T11:45:14.179Z,1018.49
2017-10-30T11:46:24.373Z,1018.39
2017-10-30T11:47:35.070Z,1018.47
2017-10-30T11:48:44.965Z,1018.4
2017-10-30T11:49:55.696Z,1018.43
2017-10-30T11:51:06.246Z,1018.34
2017-10-30T11:52:16.817Z,1018.35
2017-10-30T11:53:27.715Z,1018.39
2017-10-30T11:54:37.636Z,1018.35
2017-10-30T11:55:47.960Z,1018.29
2017-10-30T11:56:58.346Z,1018.33
2017-10-30T11:58:08.719Z,1018.3
2017-10-30T11:59:19.100Z,1018.36
2017-10-30T12:00:29.434Z,1018.47
2017-10-30T12:01:39.003Z,1018.36
2017-10-30T12:02:50.048Z,1018.37
2017-10-30T12:04:01.031Z,1018.39
2017-10-30T12:05:11.882Z,1018.36
2017-10-30T12:06:22.278Z,1018.4
2017-10-30T12:07:32.234Z,1018.41
2017-10-30T12:08:42.212Z,1018.43
2017-10-30T12:09:52.555Z,1018.42
2017-10-30T12:11:02.947Z,1018.45
2017-10-30T12:12:13.716Z,1018.44
2017-10-30T12:13:24.079Z,1018.51
2017-10-30T12:14:33.728Z,1018.45
2017-10-30T12:15:43.769Z,1018.49
2017-10-30T12:16:54.186Z,1018.57
2017-10-30T12:18:04.577Z,1018.56
2017-10-30T12:19:14.180Z,1018.52
2017-10-30T12:20:24.609Z,1018.54
2017-10-30T12:21:34.984Z,1018.48
2017-10-30T12:22:45.451Z,1018.51
2017-10-30T12:23:56.114Z,1018.44
2017-10-30T12:25:06.875Z,1018.46
2017-10-30T12:26:16.816Z,1018.5
2017-10-30T12:27:27.734Z,1018.52
2017-10-30T12:28:38.065Z,1018.59
2017-10-30T12:29:48.768Z,1018.6
2017-10-30T12:30:59.824Z,1018.53
2017-10-30T12:32:09.842Z,1018.53
2017-10-30T12:33:20.389Z,1018.57
2017-10-30T12:34:30.817Z,1018.56
2017-10-30T12:35:41.448Z,1018.63
2017-10-30T12:36:51.700Z,1018.6
2017-10-30T12:38:02.259Z,1018.53
2017-10-30T12:39:12.145Z,1018.58
2017-10-30T12:40:22.629Z,1018.61
2017-10-30T12:41:32.649Z,1018.61
2017-10-30T12:42:42.593Z,1018.59
2017-10-30T12:43:52.695Z,1018.58
2017-10-30T12:45:03.020Z,1018.62
2017-10-30T12:46:13.460Z,1018.6
2017-10-30T12:47:23.303Z,1018.66
2017-10-30T12:48:33.583Z,1018.64
2017-10-30T12:49:44.298Z,1018.76
2017-10-30T12:50:54.881Z,1018.75
2017-10-30T12:52:04.852Z,1018.68
2017-10-30T12:53:14.872Z,1018.63
2017-10-30T12:54:25.866Z,1018.63
2017-10-30T12:55:36.216Z,1018.62
2017-10-30T12:56:46.301Z,1018.67
2017-10-30T12:57:56.644Z,1018.71
2017-10-30T12:59:05.909Z,1018.69
2017-10-30T13:00:16.419Z,1018.58
2017-10-30T13:01:27.170Z,1018.69
2017-10-30T13:02:36.694Z,1018.66
2017-10-30T13:03:47.909Z,1018.6
2017-10-30T13:04:57.690Z,1018.62
2017-10-30T13:06:08.009Z,1018.64
2017-10-30T13:07:17.680Z,1018.6
2017-10-30T13:08:28.017Z,1018.59
2017-10-30T13:09:38.385Z,1018.5
2017-10-30T13:10:48.334Z,1018.55
2017-10-30T13:11:58.600Z,1018.5
2017-10-30T13:13:09.081Z,1018.52
2017-10-30T13:14:19.843Z,1018.58
2017-10-30T13:15:30.322Z,1018.55
2017-10-30T13:16:40.796Z,1018.48
2017-10-30T13:17:50.884Z,1018.59
2017-10-30T13:19:01.227Z,1018.53
2017-10-30T13:20:11.755Z,1018.52
2017-10-30T13:21:21.387Z,1018.53
2017-10-30T13:22:32.466Z,1018.48
2017-10-30T13:23:42.429Z,1018.53
2017-10-30T13:24:52.747Z,1018.5
2017-10-30T13:26:03.741Z,1018.56
2017-10-30T13:27:13.492Z,1018.56
2017-10-30T13:28:24.038Z,1018.56
2017-10-30T13:29:34.861Z,1018.61
2017-10-30T13:30:45.545Z,1018.62
2017-10-30T13:31:56.017Z,1018.6
2017-10-30T13:33:06.427Z,1018.58
2017-10-30T13:34:17.270Z,1018.59
2017-10-30T13:35:27.694Z,1018.6
2017-10-30T13:36:37.008Z,1018.6
2017-10-30T13:37:46.712Z,1018.51
2017-10-30T13:38:58.539Z,1018.54
2017-10-30T13:40:08.888Z,1018.57
2017-10-30T13:41:19.048Z,1018.61
2017-10-30T13:42:28.651Z,1018.61
2017-10-30T13:43:39.042Z,1018.58
2017-10-30T13:44:49.143Z,1018.59
2017-10-30T13:45:59.731Z,1018.61
2017-10-30T13:47:10.212Z,1018.55
2017-10-30T13:48:20.697Z,1018.57
2017-10-30T13:49:31.145Z,1018.62
2017-10-30T13:50:41.795Z,1018.54
2017-10-30T13:51:52.863Z,1018.49
2017-10-30T13:53:03.226Z,1018.48
2017-10-30T13:54:14.020Z,1018.48
2017-10-30T13:55:24.614Z,1018.51
2017-10-30T13:56:34.756Z,1018.4
2017-10-30T13:57:45.451Z,1018.42
2017-10-30T13:58:56.264Z,1018.41
2017-10-30T14:00:06.402Z,1018.42
2017-10-30T14:01:16.565Z,1018.43
2017-10-30T14:02:26.956Z,1018.4
2017-10-30T14:03:37.940Z,1018.42
2017-10-30T14:04:48.628Z,1018.52
2017-10-30T14:05:58.580Z,1018.51
2017-10-30T14:07:08.505Z,1018.56
2017-10-30T14:08:19.416Z,1018.52
2017-10-30T14:09:29.721Z,1018.46